Time;durP1;ratioP1;P1;durP2;ratioP2;P2;SDS_P1;SDS_P2;PMS_P1;PMS_P2;Temp;Humidity;BMP_temperature;BMP_pressure;BME280_temperature;BME280_humidity;BME280_pressure;Samples;Min_cycle;Max_cycle;Signal;HPM_P1;HPM_P2
2021/07/25 00:00:42;;;;;;;8.70;6.50;;;20.80;99.90;;;;;;5076114;28;20820;-72
2021/07/25 00:03:10;;;;;;;7.27;6.57;;;20.80;99.90;;;;;;5076177;28;20448;-73
2021/07/25 00:05:37;;;;;;;9.77;7.33;;;20.80;99.90;;;;;;5076181;28;20443;-72
2021/07/25 00:08:04;;;;;;;7.00;6.27;;;20.80;99.90;;;;;;5076350;28;20439;-73
2021/07/25 00:10:31;;;;;;;8.43;6.70;;;20.70;99.90;;;;;;5075862;28;20957;-72
2021/07/25 00:12:59;;;;;;;9.70;6.83;;;20.70;99.90;;;;;;5076631;28;20559;-73
2021/07/25 00:15:26;;;;;;;11.83;7.13;;;20.80;99.90;;;;;;5075988;28;20478;-72
2021/07/25 00:17:53;;;;;;;8.10;6.70;;;20.80;99.90;;;;;;5075875;28;20451;-73
2021/07/25 00:20:19;;;;;;;8.47;7.00;;;20.80;99.90;;;;;;5075827;28;20446;-72
2021/07/25 00:22:46;;;;;;;11.53;7.53;;;20.80;99.90;;;;;;5075961;28;20554;-73
2021/07/25 00:25:18;;;;;;;9.43;6.70;;;20.70;99.90;;;;;;5075702;28;20471;-73
2021/07/25 00:27:46;;;;;;;9.73;7.37;;;20.70;99.90;;;;;;5075725;28;20447;-73
2021/07/25 00:30:15;;;;;;;9.23;7.83;;;20.50;99.90;;;;;;5074655;28;20464;-72
2021/07/25 00:32:42;;;;;;;8.10;7.30;;;20.50;99.90;;;;;;5075210;28;20467;-72
2021/07/25 00:35:10;;;;;;;9.37;7.03;;;20.40;99.90;;;;;;5075392;28;20496;-72
2021/07/25 00:37:37;;;;;;;9.80;6.87;;;20.40;99.90;;;;;;5075838;28;20439;-72
2021/07/25 00:40:07;;;;;;;11.33;7.30;;;20.50;99.90;;;;;;5075285;28;20445;-72
2021/07/25 00:42:40;;;;;;;7.93;7.13;;;20.60;99.90;;;;;;5075513;28;20469;-72
2021/07/25 00:45:08;;;;;;;8.23;6.90;;;20.70;99.90;;;;;;5075359;28;20446;-72
2021/07/25 00:47:39;;;;;;;8.20;6.97;;;20.70;99.90;;;;;;5075183;28;20448;-72
2021/07/25 00:50:08;;;;;;;7.30;6.40;;;20.80;99.90;;;;;;5074945;28;20445;-72
2021/07/25 00:52:36;;;;;;;8.90;7.40;;;20.80;99.90;;;;;;5075316;28;20470;-72
2021/07/25 00:55:03;;;;;;;8.30;7.03;;;20.90;99.90;;;;;;5074990;28;20993;-72
2021/07/25 00:57:30;;;;;;;8.90;6.80;;;20.80;99.90;;;;;;5075107;28;20538;-72
2021/07/25 00:59:56;;;;;;;9.17;7.30;;;20.80;99.90;;;;;;5074854;28;20443;-72
2021/07/25 01:02:25;;;;;;;8.50;7.27;;;20.70;99.90;;;;;;5074682;28;20462;-72
2021/07/25 01:04:59;;;;;;;9.43;7.27;;;20.60;99.90;;;;;;5074966;28;20814;-72
2021/07/25 01:07:32;;;;;;;9.27;7.90;;;20.60;99.90;;;;;;5074979;28;20802;-72
2021/07/25 01:10:04;;;;;;;7.97;6.77;;;20.40;99.90;;;;;;5074865;28;20868;-72
2021/07/25 01:12:38;;;;;;;8.03;7.07;;;20.30;99.90;;;;;;5074673;28;20537;-72
2021/07/25 01:15:06;;;;;;;8.93;6.90;;;20.40;99.90;;;;;;5074734;28;20474;-72
2021/07/25 01:17:34;;;;;;;7.70;6.93;;;20.50;99.90;;;;;;5074661;28;20449;-72
2021/07/25 01:20:05;;;;;;;9.43;6.83;;;20.60;99.90;;;;;;5074554;28;20447;-72
2021/07/25 01:22:35;;;;;;;7.57;6.83;;;20.40;99.90;;;;;;5074550;28;20463;-72
2021/07/25 01:25:02;;;;;;;9.60;7.10;;;20.20;99.90;;;;;;5074446;28;20453;-72
2021/07/25 01:27:38;;;;;;;8.60;6.93;;;20.10;99.90;;;;;;5074289;28;20550;-72
2021/07/25 01:30:08;;;;;;;10.40;6.57;;;20.00;99.90;;;;;;5073718;28;20941;-72
2021/07/25 01:32:38;;;;;;;10.97;7.90;;;20.10;99.90;;;;;;5074245;28;20559;-72
2021/07/25 01:35:08;;;;;;;8.40;7.50;;;20.00;99.90;;;;;;5074028;28;20478;-72
2021/07/25 01:37:35;;;;;;;10.27;7.67;;;20.10;99.90;;;;;;5074081;28;20447;-72
2021/07/25 01:40:11;;;;;;;8.27;6.63;;;20.10;99.90;;;;;;5074118;28;20451;-72
2021/07/25 01:42:38;;;;;;;9.07;8.07;;;20.20;99.90;;;;;;5073961;28;20470;-72
2021/07/25 01:45:06;;;;;;;8.60;7.27;;;20.30;99.90;;;;;;5074014;28;20473;-72
2021/07/25 01:47:34;;;;;;;8.50;7.43;;;20.40;99.90;;;;;;5074258;28;20866;-73
2021/07/25 01:50:01;;;;;;;9.70;8.00;;;20.40;99.90;;;;;;5074142;28;20529;-72
2021/07/25 01:52:29;;;;;;;10.90;7.93;;;20.50;99.90;;;;;;5074073;28;20467;-73
2021/07/25 01:54:55;;;;;;;8.77;7.33;;;20.50;99.90;;;;;;5073711;28;20482;-72
2021/07/25 01:57:22;;;;;;;13.17;8.33;;;20.50;99.90;;;;;;5073793;28;20810;-72
2021/07/25 01:59:49;;;;;;;10.40;8.23;;;20.30;99.90;;;;;;5073947;28;20538;-73
2021/07/25 02:02:16;;;;;;;12.00;7.17;;;20.20;99.90;;;;;;5073720;28;20469;-72
2021/07/25 02:04:43;;;;;;;9.10;7.20;;;20.30;99.90;;;;;;5073743;28;20445;-72
2021/07/25 02:07:10;;;;;;;9.20;7.33;;;20.40;99.90;;;;;;5073906;28;20876;-73
2021/07/25 02:09:38;;;;;;;9.83;7.10;;;20.50;99.90;;;;;;5073715;28;20438;-73
2021/07/25 02:12:05;;;;;;;7.50;6.20;;;20.60;99.90;;;;;;5073173;28;20468;-72
2021/07/25 02:14:32;;;;;;;9.43;7.00;;;20.60;99.90;;;;;;5073669;28;20447;-72
2021/07/25 02:17:00;;;;;;;8.93;7.20;;;20.60;99.90;;;;;;5073813;28;21117;-73
2021/07/25 02:19:27;;;;;;;9.30;6.80;;;20.70;99.90;;;;;;5073874;28;20439;-73
2021/07/25 02:21:54;;;;;;;7.30;6.53;;;20.70;99.90;;;;;;5073681;28;20459;-72
2021/07/25 02:24:21;;;;;;;10.10;8.30;;;20.70;99.90;;;;;;5073494;28;20448;-73
2021/07/25 02:26:50;;;;;;;9.73;7.00;;;20.70;99.90;;;;;;5073813;28;20945;-72
2021/07/25 02:29:17;;;;;;;10.27;7.33;;;20.70;99.90;;;;;;5073796;28;20474;-72
2021/07/25 02:31:44;;;;;;;9.27;7.70;;;20.60;99.90;;;;;;5073197;28;20474;-72
2021/07/25 02:34:11;;;;;;;8.20;7.17;;;20.60;99.90;;;;;;5073416;28;21019;-72
2021/07/25 02:36:38;;;;;;;10.83;7.77;;;20.50;99.90;;;;;;5073469;28;20478;-72
2021/07/25 02:39:06;;;;;;;9.60;8.40;;;20.40;99.90;;;;;;5073489;28;20446;-73
2021/07/25 02:41:33;;;;;;;8.90;7.10;;;20.30;99.90;;;;;;5073299;28;20550;-72
2021/07/25 02:44:01;;;;;;;9.20;7.50;;;20.20;99.90;;;;;;5073551;28;20465;-73
2021/07/25 02:46:27;;;;;;;9.43;7.07;;;20.10;99.90;;;;;;5073541;28;20433;-73
2021/07/25 02:48:54;;;;;;;9.00;7.10;;;20.20;99.90;;;;;;5073589;28;20525;-73
2021/07/25 02:51:21;;;;;;;9.60;7.37;;;20.20;99.90;;;;;;5073283;28;20558;-72
2021/07/25 02:53:48;;;;;;;9.00;6.80;;;20.30;99.90;;;;;;5074121;28;20447;-73
2021/07/25 02:56:15;;;;;;;9.57;7.33;;;20.40;99.90;;;;;;5077150;28;20506;-73
2021/07/25 02:58:41;;;;;;;10.00;7.13;;;20.40;99.90;;;;;;5077193;28;20437;-72
2021/07/25 03:01:13;;;;;;;8.93;6.90;;;20.50;99.90;;;;;;5076632;28;20466;-72
2021/07/25 03:03:40;;;;;;;8.10;6.90;;;20.40;99.90;;;;;;5077218;28;20444;-73
2021/07/25 03:06:07;;;;;;;10.20;7.17;;;20.50;99.90;;;;;;5077150;28;20530;-72
2021/07/25 03:08:36;;;;;;;9.80;7.10;;;20.40;99.90;;;;;;5076953;28;20538;-72
2021/07/25 03:11:06;;;;;;;8.70;7.77;;;20.50;99.90;;;;;;5076787;28;20471;-72
2021/07/25 03:13:33;;;;;;;10.23;7.10;;;20.50;99.90;;;;;;5076759;28;20785;-71
2021/07/25 03:16:02;;;;;;;9.37;7.47;;;20.60;99.90;;;;;;5076811;28;20484;-72
2021/07/25 03:18:30;;;;;;;8.40;7.10;;;20.70;99.90;;;;;;5076818;28;20453;-72
2021/07/25 03:20:57;;;;;;;9.80;7.53;;;20.70;99.90;;;;;;5076276;28;20476;-72
2021/07/25 03:23:24;;;;;;;9.60;8.60;;;20.60;99.90;;;;;;5076398;28;20536;-72
2021/07/25 03:25:51;;;;;;;10.23;7.50;;;20.50;99.90;;;;;;5076441;28;20798;-72
2021/07/25 03:28:18;;;;;;;8.57;7.67;;;20.50;99.90;;;;;;5076588;28;20445;-73
2021/07/25 03:30:45;;;;;;;7.87;7.10;;;20.40;99.90;;;;;;5076221;28;20448;-72
2021/07/25 03:33:12;;;;;;;8.30;7.27;;;20.40;99.90;;;;;;5076315;28;20536;-73
2021/07/25 03:35:40;;;;;;;8.03;6.93;;;20.40;99.90;;;;;;5076476;28;20483;-72
2021/07/25 03:38:07;;;;;;;9.83;6.80;;;20.40;99.90;;;;;;5076289;28;20535;-72
2021/07/25 03:40:35;;;;;;;9.93;8.30;;;20.30;99.90;;;;;;5076171;28;20489;-72
2021/07/25 03:43:03;;;;;;;8.37;7.40;;;20.20;99.90;;;;;;5076351;28;20554;-72
2021/07/25 03:45:29;;;;;;;9.80;7.60;;;20.10;99.90;;;;;;5076381;28;20448;-72
2021/07/25 03:47:57;;;;;;;8.00;7.00;;;20.00;99.90;;;;;;5076321;28;20454;-72
2021/07/25 03:50:24;;;;;;;7.87;6.47;;;20.00;99.90;;;;;;5075729;28;20453;-72
2021/07/25 03:52:52;;;;;;;9.53;7.70;;;19.90;99.90;;;;;;5076004;28;20549;-72
2021/07/25 03:55:19;;;;;;;6.40;5.60;;;20.00;99.90;;;;;;5076321;28;20473;-73
2021/07/25 03:57:46;;;;;;;8.73;6.93;;;20.00;99.90;;;;;;5075928;28;20439;-72
2021/07/25 04:00:13;;;;;;;10.13;6.17;;;20.10;99.90;;;;;;5075832;28;20450;-72
2021/07/25 04:02:40;;;;;;;7.20;6.10;;;20.10;99.90;;;;;;5075766;28;20969;-72
2021/07/25 04:05:08;;;;;;;7.30;6.43;;;20.10;99.90;;;;;;5075322;28;20445;-72
2021/07/25 04:07:35;;;;;;;6.60;5.63;;;20.10;99.90;;;;;;5075515;28;20544;-72
2021/07/25 04:10:04;;;;;;;6.80;5.90;;;20.10;99.90;;;;;;5075817;28;20443;-72
2021/07/25 04:12:31;;;;;;;7.03;6.03;;;20.20;99.90;;;;;;5075540;28;20470;-72
2021/07/25 04:14:59;;;;;;;8.10;5.67;;;20.20;99.90;;;;;;5075876;28;20453;-72
2021/07/25 04:17:25;;;;;;;7.00;5.50;;;20.20;99.90;;;;;;5075825;28;20480;-72
2021/07/25 04:19:52;;;;;;;6.80;6.00;;;20.20;99.90;;;;;;5075311;28;20438;-72
2021/07/25 04:22:19;;;;;;;6.30;5.70;;;20.20;99.90;;;;;;5075677;28;20861;-72
2021/07/25 04:24:46;;;;;;;7.87;6.33;;;20.20;99.90;;;;;;5075705;28;20534;-72
2021/07/25 04:27:15;;;;;;;7.63;5.93;;;20.20;99.90;;;;;;5075427;28;20435;-72
2021/07/25 04:29:43;;;;;;;7.70;6.43;;;20.30;99.90;;;;;;5075273;28;20459;-73
2021/07/25 04:32:11;;;;;;;7.80;6.83;;;20.30;99.90;;;;;;5075254;28;20463;-72
2021/07/25 04:34:39;;;;;;;8.10;6.87;;;20.30;99.90;;;;;;5075056;28;20949;-73
2021/07/25 04:37:11;;;;;;;10.73;6.73;;;20.40;99.90;;;;;;5075168;28;20480;-73
2021/07/25 04:39:38;;;;;;;7.70;6.37;;;20.40;99.90;;;;;;5075174;28;20458;-73
2021/07/25 04:42:05;;;;;;;8.90;7.33;;;20.50;99.90;;;;;;5074644;28;20463;-73
2021/07/25 04:44:42;;;;;;;7.67;6.87;;;20.40;99.90;;;;;;5075023;28;20446;-72
2021/07/25 04:47:17;;;;;;;8.77;6.80;;;20.40;99.90;;;;;;5074891;28;20442;-72
2021/07/25 04:49:52;;;;;;;8.57;7.10;;;20.40;99.90;;;;;;5075185;28;20441;-73
2021/07/25 04:52:22;;;;;;;8.13;6.70;;;20.30;99.90;;;;;;5075386;28;20476;-72
2021/07/25 04:54:49;;;;;;;7.43;6.00;;;20.30;99.90;;;;;;5074614;28;20443;-72
2021/07/25 04:57:20;;;;;;;8.50;6.90;;;20.30;99.90;;;;;;5074718;28;20478;-72
2021/07/25 04:59:51;;;;;;;9.80;7.33;;;20.40;99.90;;;;;;5074965;28;20457;-72
2021/07/25 05:02:20;;;;;;;7.00;6.30;;;20.30;99.90;;;;;;5074881;28;20989;-72
2021/07/25 05:04:49;;;;;;;8.83;7.00;;;20.30;99.90;;;;;;5074504;28;20443;-73
2021/07/25 05:07:16;;;;;;;8.40;7.17;;;20.30;99.90;;;;;;5074766;28;20435;-73
2021/07/25 05:09:44;;;;;;;9.10;7.73;;;20.30;99.90;;;;;;5074614;28;20447;-72
2021/07/25 05:12:18;;;;;;;7.90;7.10;;;20.40;99.90;;;;;;5074395;28;20466;-72
2021/07/25 05:14:51;;;;;;;7.40;6.70;;;20.40;99.90;;;;;;5074654;28;20450;-73
2021/07/25 05:17:24;;;;;;;8.47;6.77;;;20.50;99.90;;;;;;5073997;28;20475;-72
2021/07/25 05:19:58;;;;;;;8.80;6.90;;;20.60;99.90;;;;;;5074377;28;20798;-72
2021/07/25 05:22:35;;;;;;;8.90;8.00;;;20.50;99.90;;;;;;5074106;28;20833;-72
2021/07/25 05:25:05;;;;;;;7.73;6.90;;;20.60;99.90;;;;;;5074342;28;20447;-73
2021/07/25 05:27:39;;;;;;;10.00;6.73;;;20.60;99.90;;;;;;5074268;28;20443;-73
2021/07/25 05:30:09;;;;;;;8.93;7.13;;;20.60;99.90;;;;;;5073776;28;20464;-72
2021/07/25 05:32:36;;;;;;;7.60;6.80;;;20.60;99.90;;;;;;5074147;28;20464;-72
2021/07/25 05:35:03;;;;;;;9.17;6.93;;;20.70;99.90;;;;;;5074329;28;20451;-73
2021/07/25 05:37:30;;;;;;;8.13;7.27;;;20.70;99.90;;;;;;5074022;28;20566;-72
2021/07/25 05:39:57;;;;;;;9.00;7.90;;;20.80;99.90;;;;;;5073997;28;20448;-72
2021/07/25 05:42:24;;;;;;;8.77;7.97;;;20.80;99.90;;;;;;5074116;28;20469;-73
2021/07/25 05:44:51;;;;;;;7.70;6.90;;;20.80;99.90;;;;;;5073980;28;20455;-73
2021/07/25 05:47:19;;;;;;;9.30;7.80;;;20.70;99.90;;;;;;5074025;28;20440;-72
2021/07/25 05:49:46;;;;;;;9.57;7.43;;;20.60;99.90;;;;;;5073913;28;20440;-72
2021/07/25 05:52:12;;;;;;;11.73;7.77;;;20.40;99.90;;;;;;5073884;28;20474;-72
2021/07/25 05:54:39;;;;;;;11.83;7.70;;;20.20;99.90;;;;;;5074168;28;20535;-72
2021/07/25 05:57:06;;;;;;;7.63;6.90;;;20.10;99.90;;;;;;5073792;28;20573;-72
2021/07/25 05:59:33;;;;;;;8.87;7.73;;;20.20;99.90;;;;;;5074101;28;20533;-72
2021/07/25 06:02:02;;;;;;;8.20;7.30;;;20.10;99.90;;;;;;5073751;28;20563;-72
2021/07/25 06:04:30;;;;;;;8.27;7.10;;;20.10;99.90;;;;;;5073862;28;20445;-72
2021/07/25 06:06:57;;;;;;;7.70;6.90;;;20.00;99.90;;;;;;5074153;28;20441;-72
2021/07/25 06:09:24;;;;;;;8.00;7.13;;;20.10;99.90;;;;;;5073901;28;20476;-72
2021/07/25 06:11:51;;;;;;;8.27;7.53;;;20.30;99.90;;;;;;5073595;28;20466;-72
2021/07/25 06:14:18;;;;;;;8.10;7.10;;;20.40;99.90;;;;;;5073700;28;20802;-72
2021/07/25 06:16:45;;;;;;;8.17;6.37;;;20.60;99.90;;;;;;5073572;28;20486;-72
2021/07/25 06:19:11;;;;;;;9.03;6.80;;;20.70;99.90;;;;;;5073873;28;20456;-72
2021/07/25 06:21:40;;;;;;;8.47;7.20;;;20.80;99.90;;;;;;5072995;28;20475;-72
2021/07/25 06:24:06;;;;;;;8.17;6.97;;;21.00;99.90;;;;;;5073196;28;21025;-72
2021/07/25 06:26:33;;;;;;;7.27;6.57;;;21.10;99.90;;;;;;5073410;28;20448;-72
2021/07/25 06:29:00;;;;;;;8.60;7.77;;;21.10;99.90;;;;;;5074083;28;20469;-72
2021/07/25 06:31:27;;;;;;;7.63;6.80;;;21.10;99.90;;;;;;5077571;28;20460;-72
2021/07/25 06:33:53;;;;;;;8.00;7.10;;;21.00;99.90;;;;;;5077480;28;20445;-72
2021/07/25 06:36:21;;;;;;;9.43;7.57;;;21.00;99.90;;;;;;5077401;28;20508;-72
2021/07/25 06:38:49;;;;;;;9.67;6.67;;;21.00;99.90;;;;;;5077442;28;20810;-72
2021/07/25 06:41:16;;;;;;;8.33;7.50;;;20.90;99.90;;;;;;5077137;28;20469;-72
2021/07/25 06:43:43;;;;;;;8.47;7.27;;;20.80;99.90;;;;;;5077417;28;20448;-72
2021/07/25 06:46:10;;;;;;;8.17;7.23;;;20.80;99.90;;;;;;5077100;28;20436;-72
2021/07/25 06:48:37;;;;;;;8.40;7.10;;;20.80;99.90;;;;;;5077210;28;20458;-72
2021/07/25 06:51:04;;;;;;;8.90;7.80;;;20.90;99.90;;;;;;5076778;28;20468;-72
2021/07/25 06:53:33;;;;;;;9.73;7.90;;;21.00;99.90;;;;;;5077223;28;20445;-72
2021/07/25 06:56:03;;;;;;;9.40;6.63;;;21.10;99.90;;;;;;5077082;28;20436;-72
2021/07/25 06:58:30;;;;;;;7.37;6.57;;;21.20;99.90;;;;;;5076983;28;20448;-72
2021/07/25 07:00:57;;;;;;;7.43;6.70;;;21.30;99.90;;;;;;5076709;28;20984;-72
2021/07/25 07:03:24;;;;;;;7.53;6.83;;;21.50;99.90;;;;;;5077054;28;20535;-73
2021/07/25 07:05:50;;;;;;;7.60;6.80;;;21.70;99.90;;;;;;5076712;28;20448;-72
2021/07/25 07:08:18;;;;;;;8.03;6.90;;;21.80;99.90;;;;;;5077068;28;20533;-72
2021/07/25 07:10:47;;;;;;;8.40;7.00;;;21.90;99.90;;;;;;5076290;28;20448;-72
2021/07/25 07:13:18;;;;;;;11.63;7.57;;;22.10;99.90;;;;;;5077077;28;20796;-72
2021/07/25 07:15:47;;;;;;;8.33;7.17;;;22.10;99.90;;;;;;5077166;28;20437;-73
2021/07/25 07:18:13;;;;;;;6.93;6.23;;;22.20;99.90;;;;;;5076744;28;20477;-72
2021/07/25 07:20:40;;;;;;;7.80;6.87;;;22.10;99.90;;;;;;5077131;28;20449;-72
2021/07/25 07:23:09;;;;;;;9.47;7.97;;;22.00;99.90;;;;;;5076871;28;20445;-72
2021/07/25 07:25:38;;;;;;;7.47;6.67;;;22.00;99.90;;;;;;5076829;28;20444;-73
2021/07/25 07:28:06;;;;;;;8.97;6.60;;;22.10;99.90;;;;;;5076689;28;20524;-72
2021/07/25 07:30:35;;;;;;;12.00;7.17;;;22.10;99.90;;;;;;5076321;28;20464;-72
2021/07/25 07:33:07;;;;;;;8.10;7.30;;;22.10;99.90;;;;;;5076679;28;20460;-72
2021/07/25 07:35:33;;;;;;;7.90;7.10;;;22.00;99.90;;;;;;5076833;28;20443;-72
2021/07/25 07:38:00;;;;;;;8.23;7.03;;;22.00;99.90;;;;;;5076650;28;20486;-72
2021/07/25 07:40:27;;;;;;;7.47;6.47;;;22.00;99.90;;;;;;5076363;28;20799;-72
2021/07/25 07:42:54;;;;;;;7.37;6.60;;;22.10;99.90;;;;;;5076480;28;20497;-73
2021/07/25 07:45:21;;;;;;;7.90;6.90;;;22.20;99.90;;;;;;5076660;28;20443;-73
2021/07/25 07:47:50;;;;;;;6.90;5.73;;;22.10;99.90;;;;;;5076358;28;20441;-73
2021/07/25 07:50:17;;;;;;;9.57;6.70;;;22.00;99.90;;;;;;5076214;28;20447;-72
2021/07/25 07:52:44;;;;;;;7.10;6.20;;;21.80;99.90;;;;;;5076695;28;20567;-73
2021/07/25 07:55:11;;;;;;;7.57;5.93;;;21.70;99.90;;;;;;5076370;28;20449;-73
2021/07/25 07:57:38;;;;;;;7.40;5.20;;;21.60;99.90;;;;;;5076106;28;20475;-73
2021/07/25 08:00:07;;;;;;;6.40;5.57;;;21.70;99.90;;;;;;5075743;28;20924;-73
2021/07/25 08:02:34;;;;;;;7.80;6.77;;;21.90;99.90;;;;;;5076899;28;20468;-72
2021/07/25 08:05:03;;;;;;;7.47;6.20;;;21.90;99.90;;;;;;5076174;28;20552;-72
2021/07/25 08:07:30;;;;;;;6.27;5.67;;;21.80;99.90;;;;;;5076158;28;20440;-73
2021/07/25 08:09:57;;;;;;;7.60;6.60;;;21.70;99.90;;;;;;5075881;28;20531;-72
2021/07/25 08:12:24;;;;;;;7.23;6.40;;;21.70;99.90;;;;;;5075764;28;21008;-73
2021/07/25 08:14:51;;;;;;;7.53;6.53;;;21.70;99.90;;;;;;5075945;28;20444;-73
2021/07/25 08:17:18;;;;;;;6.70;6.00;;;21.60;99.90;;;;;;5075783;28;20842;-73
2021/07/25 08:19:45;;;;;;;6.30;5.70;;;21.80;99.90;;;;;;5075824;28;21015;-73
2021/07/25 08:22:13;;;;;;;6.20;5.60;;;22.40;99.90;;;;;;5076004;28;20576;-72
2021/07/25 08:24:40;;;;;;;7.13;5.83;;;23.00;99.90;;;;;;5076171;28;20882;-73
2021/07/25 08:27:07;;;;;;;6.90;6.20;;;23.20;99.90;;;;;;5075506;28;20451;-72
2021/07/25 08:29:34;;;;;;;6.53;5.90;;;23.30;99.90;;;;;;5075353;28;20459;-73
2021/07/25 08:32:00;;;;;;;7.00;6.00;;;23.40;99.90;;;;;;5075616;28;20473;-72
2021/07/25 08:34:27;;;;;;;7.23;6.53;;;23.20;99.90;;;;;;5075666;28;20442;-73
2021/07/25 08:36:54;;;;;;;6.13;5.53;;;23.20;99.90;;;;;;5075500;28;21014;-72
2021/07/25 08:39:23;;;;;;;7.80;6.20;;;23.20;99.90;;;;;;5075310;28;20437;-72
2021/07/25 08:42:00;;;;;;;7.77;6.90;;;23.10;99.90;;;;;;5074892;28;20543;-72
2021/07/25 08:44:41;;;;;;;6.83;6.07;;;22.80;99.90;;;;;;5075059;28;20440;-72
2021/07/25 08:47:18;;;;;;;6.50;5.83;;;22.70;99.90;;;;;;5075083;28;20534;-72
2021/07/25 08:49:52;;;;;;;7.00;6.30;;;22.60;99.90;;;;;;5074853;28;20466;-72
2021/07/25 08:52:20;;;;;;;7.43;6.20;;;22.60;99.90;;;;;;5074307;28;20559;-72
2021/07/25 08:54:48;;;;;;;7.20;6.50;;;22.40;99.90;;;;;;5075081;28;20528;-72
2021/07/25 08:57:17;;;;;;;7.73;6.40;;;22.20;99.90;;;;;;5074952;28;20472;-72
2021/07/25 08:59:46;;;;;;;7.70;6.87;;;22.10;99.90;;;;;;5075058;28;20445;-72
2021/07/25 09:02:18;;;;;;;6.80;5.80;;;22.10;99.90;;;;;;5074821;28;20551;-72
2021/07/25 09:04:46;;;;;;;8.50;7.10;;;22.00;99.90;;;;;;5074701;28;20441;-72
2021/07/25 09:07:13;;;;;;;7.47;5.93;;;22.00;99.90;;;;;;5074986;28;20495;-72
2021/07/25 09:09:42;;;;;;;6.67;5.67;;;22.00;99.90;;;;;;5074901;28;20447;-72
2021/07/25 09:12:13;;;;;;;7.50;6.37;;;22.00;99.90;;;;;;5074470;28;20467;-72
2021/07/25 09:14:44;;;;;;;7.30;6.20;;;21.90;99.90;;;;;;5074698;28;20910;-72
2021/07/25 09:17:12;;;;;;;6.10;5.07;;;21.90;99.90;;;;;;5074526;28;20567;-72
2021/07/25 09:20:09;;;;;;;7.20;5.90;;;21.90;99.90;;;;;;5074604;28;20463;-72
2021/07/25 09:22:36;;;;;;;7.40;6.20;;;21.80;99.90;;;;;;5074177;28;20471;-72
2021/07/25 09:25:04;;;;;;;8.10;6.50;;;21.80;99.90;;;;;;5074418;28;20523;-72
2021/07/25 09:27:32;;;;;;;6.70;6.00;;;21.70;99.90;;;;;;5074334;28;20958;-72
2021/07/25 09:30:17;;;;;;;6.63;5.57;;;21.70;99.90;;;;;;5073983;28;20880;-72
2021/07/25 09:32:44;;;;;;;7.00;5.57;;;21.80;99.90;;;;;;5074165;28;20471;-72
2021/07/25 09:35:23;;;;;;;5.43;4.93;;;21.80;99.90;;;;;;5074226;28;20445;-72
2021/07/25 09:37:51;;;;;;;6.27;5.70;;;22.00;99.90;;;;;;5074050;28;21008;-72
2021/07/25 09:40:26;;;;;;;6.47;5.70;;;22.20;99.90;;;;;;5073963;28;20544;-72
2021/07/25 09:43:08;;;;;;;5.90;5.30;;;22.20;99.90;;;;;;5074165;28;20468;-72
2021/07/25 09:45:56;;;;;;;5.37;4.90;;;22.00;99.90;;;;;;5074084;28;20790;-72
2021/07/25 09:48:24;;;;;;;8.00;6.10;;;22.00;99.90;;;;;;5074256;28;20477;-72
2021/07/25 09:50:54;;;;;;;6.20;5.60;;;22.10;99.90;;;;;;5073825;28;20928;-73
2021/07/25 09:53:21;;;;;;;7.17;6.10;;;22.20;99.90;;;;;;5073997;28;20445;-72
2021/07/25 09:55:48;;;;;;;8.07;6.80;;;22.10;99.90;;;;;;5074104;28;20441;-72
2021/07/25 09:58:16;;;;;;;8.10;7.13;;;22.10;99.90;;;;;;5073939;28;20986;-73
2021/07/25 10:00:44;;;;;;;8.50;7.30;;;22.10;99.90;;;;;;5073625;28;20451;-72
2021/07/25 10:03:24;;;;;;;9.10;7.07;;;22.20;99.90;;;;;;5073470;28;20799;-73
2021/07/25 10:05:51;;;;;;;8.70;7.00;;;22.30;99.90;;;;;;5073873;28;20441;-72
2021/07/25 10:08:19;;;;;;;7.60;6.70;;;22.30;99.90;;;;;;5073895;28;20433;-73
2021/07/25 10:10:48;;;;;;;6.97;6.27;;;22.30;99.90;;;;;;5073310;28;20443;-72
2021/07/25 10:13:18;;;;;;;7.17;6.20;;;22.40;99.90;;;;;;5073706;28;20462;-72
2021/07/25 10:15:51;;;;;;;7.27;5.93;;;22.40;99.90;;;;;;5073473;28;20939;-72
2021/07/25 10:18:18;;;;;;;6.23;5.63;;;22.40;99.90;;;;;;5073724;28;20484;-72
2021/07/25 10:20:46;;;;;;;7.27;6.57;;;22.40;99.90;;;;;;5073215;28;20452;-72
2021/07/25 10:23:17;;;;;;;9.53;6.70;;;22.40;99.90;;;;;;5073643;28;20479;-72
2021/07/25 10:25:50;;;;;;;6.87;6.17;;;22.40;99.90;;;;;;5073415;28;20445;-72
2021/07/25 10:28:20;;;;;;;6.40;5.80;;;22.30;99.90;;;;;;5073229;28;20440;-73
2021/07/25 10:30:50;;;;;;;8.20;6.50;;;22.30;99.90;;;;;;5073290;28;20449;-72
2021/07/25 10:33:18;;;;;;;6.40;5.60;;;22.30;99.90;;;;;;5073578;28;20438;-72
2021/07/25 10:35:46;;;;;;;6.37;5.53;;;22.20;99.90;;;;;;5073546;28;20441;-73
2021/07/25 10:38:13;;;;;;;6.80;5.40;;;22.20;99.90;;;;;;5073759;28;20476;-72
2021/07/25 10:40:40;;;;;;;5.80;5.17;;;22.10;99.90;;;;;;5073290;28;20475;-72
2021/07/25 10:43:07;;;;;;;6.13;5.10;;;22.00;99.90;;;;;;5073729;28;20449;-73
2021/07/25 10:45:36;;;;;;;6.13;5.40;;;22.00;99.90;;;;;;5073469;28;20467;-73
2021/07/25 10:48:16;;;;;;;5.97;5.10;;;22.00;99.90;;;;;;5073358;28;20443;-73
2021/07/25 10:50:43;;;;;;;4.97;4.27;;;21.90;99.90;;;;;;5072895;28;20444;-72
2021/07/25 10:53:22;;;;;;;5.10;4.60;;;21.80;99.90;;;;;;5073453;28;20452;-73
2021/07/25 10:55:51;;;;;;;5.83;4.63;;;21.80;99.90;;;;;;5073207;28;20452;-72
2021/07/25 10:58:19;;;;;;;4.77;4.17;;;21.70;99.90;;;;;;5073192;28;20476;-73
2021/07/25 11:00:50;;;;;;;5.03;4.27;;;21.50;99.90;;;;;;5073030;28;20447;-72
2021/07/25 11:03:43;;;;;;;5.00;4.50;;;21.50;99.90;;;;;;5073279;28;20503;-73
2021/07/25 11:06:20;;;;;;;6.17;4.40;;;21.60;99.90;;;;;;5072985;28;20440;-72
2021/07/25 11:08:50;;;;;;;4.30;3.87;;;21.70;99.90;;;;;;5073277;28;20437;-72
2021/07/25 11:11:56;;;;;;;4.60;4.20;;;21.70;99.90;;;;;;5073109;28;20472;-72
2021/07/25 11:15:07;;;;;;;5.10;4.53;;;21.70;99.90;;;;;;4991811;28;20440;-73
2021/07/25 11:17:53;;;;;;;4.27;3.87;;;21.60;99.90;;;;;;5077036;28;20820;-72
2021/07/25 11:20:41;;;;;;;5.03;4.57;;;21.60;99.90;;;;;;5076946;28;20523;-72
2021/07/25 11:23:12;;;;;;;4.73;4.10;;;21.60;99.90;;;;;;5076612;28;20433;-72
2021/07/25 11:25:40;;;;;;;5.40;4.30;;;21.80;99.90;;;;;;5076828;28;20810;-73
2021/07/25 11:28:08;;;;;;;4.90;4.40;;;22.00;99.90;;;;;;5076637;28;20523;-72
2021/07/25 11:31:07;;;;;;;5.27;3.90;;;22.10;99.90;;;;;;5076152;28;20448;-72
2021/07/25 11:33:54;;;;;;;6.43;4.70;;;22.10;99.90;;;;;;5076325;28;20931;-72
2021/07/25 11:36:23;;;;;;;4.33;3.83;;;22.20;99.90;;;;;;5076542;28;20437;-73
2021/07/25 11:38:55;;;;;;;6.70;4.57;;;22.30;99.90;;;;;;5076228;28;20472;-73
2021/07/25 11:41:25;;;;;;;5.90;4.60;;;22.40;99.90;;;;;;5076165;28;21021;-72
2021/07/25 11:43:55;;;;;;;5.30;4.80;;;22.50;99.90;;;;;;5076650;28;20429;-73
2021/07/25 11:46:26;;;;;;;6.30;5.67;;;22.50;99.90;;;;;;5076469;28;20437;-72
2021/07/25 11:49:06;;;;;;;5.70;5.10;;;22.50;99.90;;;;;;5076514;28;20444;-72
2021/07/25 11:51:33;;;;;;;6.40;5.70;;;22.60;99.90;;;;;;5076600;28;20472;-72
2021/07/25 11:53:59;;;;;;;5.93;5.43;;;22.70;99.90;;;;;;5076508;28;20878;-72
2021/07/25 11:56:27;;;;;;;5.20;4.70;;;22.70;99.90;;;;;;5076563;28;20437;-72
2021/07/25 11:59:05;;;;;;;6.87;5.77;;;22.70;99.90;;;;;;5076326;28;20563;-72
2021/07/25 12:01:33;;;;;;;6.60;5.43;;;22.70;99.90;;;;;;5076219;28;20548;-72
2021/07/25 12:04:01;;;;;;;6.10;5.53;;;22.70;99.90;;;;;;5076026;28;20442;-72
2021/07/25 12:06:29;;;;;;;6.23;5.63;;;22.70;99.90;;;;;;5076621;28;20452;-72
2021/07/25 12:09:04;;;;;;;5.20;4.70;;;22.70;99.90;;;;;;5076353;28;20528;-72
2021/07/25 12:11:31;;;;;;;5.30;4.80;;;22.70;99.90;;;;;;5075863;28;20982;-72
2021/07/25 12:13:57;;;;;;;6.17;5.57;;;22.70;99.90;;;;;;5076116;28;20535;-72
2021/07/25 12:16:24;;;;;;;6.60;5.53;;;22.80;99.90;;;;;;5076084;28;20437;-72
2021/07/25 12:18:51;;;;;;;7.00;5.83;;;22.80;99.90;;;;;;5075838;28;20487;-72
2021/07/25 12:21:33;;;;;;;7.23;5.67;;;22.70;99.90;;;;;;5075697;28;20471;-72
2021/07/25 12:24:00;;;;;;;6.27;5.10;;;22.60;99.90;;;;;;5075791;28;20441;-72
2021/07/25 12:26:39;;;;;;;5.80;5.30;;;22.40;99.90;;;;;;5074685;28;20452;-72
2021/07/25 12:29:40;;;;;;;6.93;6.23;;;22.40;99.90;;;;;;5076013;28;20449;-72
2021/07/25 12:32:26;;;;;;;5.77;5.17;;;22.40;99.90;;;;;;5074972;28;20540;-72
2021/07/25 12:34:55;;;;;;;6.43;5.60;;;22.30;99.90;;;;;;5075479;28;20787;-72
2021/07/25 12:37:31;;;;;;;6.70;5.50;;;22.20;99.90;;;;;;5075264;28;20443;-72
2021/07/25 12:40:09;;;;;;;6.67;5.90;;;22.20;99.90;;;;;;5075185;28;20476;-72
2021/07/25 12:42:40;;;;;;;5.30;4.80;;;22.20;99.90;;;;;;5075126;28;20491;-72
2021/07/25 12:45:29;;;;;;;6.47;5.50;;;22.20;99.90;;;;;;5075437;28;20445;-72
2021/07/25 12:48:16;;;;;;;6.90;5.37;;;22.10;99.90;;;;;;5075389;28;20451;-72
2021/07/25 12:50:55;;;;;;;6.03;5.40;;;22.10;99.90;;;;;;5074881;28;20445;-72
2021/07/25 12:53:31;;;;;;;6.00;5.03;;;22.10;99.90;;;;;;5075420;28;20436;-72
2021/07/25 12:55:59;;;;;;;6.13;5.47;;;22.00;99.90;;;;;;5074843;28;20441;-72
2021/07/25 12:58:28;;;;;;;6.93;5.70;;;22.00;99.90;;;;;;5074701;28;20574;-72